This is the latest recevied weather packets stored in our database for station/object DC1NF-7. If no packets are shown the sender has not sent any weather packets the latest 10 day(s).
| Time | Temp. | Humidity | Pressure | Rain* | Wind** | Luminosity | Snow |
|---|---|---|---|---|---|---|---|
| 1777604731 | 2.78° C | 75% | 1028.3 hPa | 0 mm | - | 0 W/m² | - |
| 1777604128 | 4.44° C | 69% | 1028.4 hPa | 0 mm | - | 0 W/m² | - |
| 1777603528 | 5° C | 64% | 1028.5 hPa | 0 mm | - | 0 W/m² | - |
| 1777602921 | 4.44° C | 67% | 1028.6 hPa | 0 mm | - | 0 W/m² | - |
| 1777602317 | 3.89° C | 69% | 1028.5 hPa | 0 mm | - | 0 W/m² | - |
| 1777601776 | 5° C | 67% | 1028.5 hPa | 0 mm | - | 0 W/m² | - |
| 1777601169 | 6.11° C | 60% | 1028.5 hPa | 0 mm | - | 0 W/m² | - |
| 1777600564 | 6.11° C | 59% | 1028.7 hPa | 0 mm | - | 0 W/m² | - |
| 1777599960 | 6.67° C | 58% | 1028.7 hPa | 0 mm | - | 0 W/m² | - |
| 1777599357 | 6.67° C | 57% | 1028.8 hPa | 0 mm | - | 0 W/m² | - |
| 1777598758 | 6.67° C | 57% | 1028.7 hPa | 0 mm | - | 0 W/m² | - |
| 1777598153 | 7.22° C | 56% | 1028.7 hPa | 0 mm | - | 0 W/m² | - |
| 1777597546 | 6.67° C | 56% | 1028.7 hPa | 0 mm | - | 0 W/m² | - |
| 1777596950 | 6.67° C | 57% | 1028.7 hPa | 0 mm | - | 0 W/m² | - |
| 1777596338 | 6.67° C | 58% | 1028.7 hPa | 0 mm | - | 0 W/m² | - |
| 1777595734 | 6.67° C | 59% | 1028.6 hPa | 0 mm | - | 0 W/m² | - |
| 1777595131 | 8.33° C | 51% | 1028.7 hPa | 0 mm | - | 0 W/m² | - |
| 1777594531 | 8.33° C | 51% | 1028.6 hPa | 0 mm | - | 0 W/m² | - |
| 1777593924 | 8.89° C | 49% | 1028.7 hPa | 0 mm | - | 0 W/m² | - |
| 1777593325 | 8.89° C | 48% | 1028.5 hPa | 0 mm | - | 0 W/m² | - |
| 1777592718 | 9.44° C | 47% | 1028.7 hPa | 0 mm | - | 0 W/m² | - |
| 1777592175 | 9.44° C | 46% | 1028.7 hPa | 0 mm | - | 0 W/m² | - |
| 1777591570 | 9.44° C | 47% | 1028.8 hPa | 0 mm | - | 0 W/m² | - |
| 1777590966 | 9.44° C | 46% | 1028.7 hPa | 0 mm | - | 0 W/m² | - |
| 1777590365 | 9.44° C | 45% | 1028.6 hPa | 0 mm | - | 0 W/m² | - |
* Rain latest hour (hover to see other rain measurements)
** Current wind speed in m/s (hover to see current wind gust speed)